Flight Track Log - Related Links

Times and Time Zones

All times are in EST time to prevent confusion due to time zone crossing. See the AFL150 flight status page for this flight to view local times or setup timezone preferences in your user account.

Time Position Orientation Groundspeed Altitude Reporting Facility
EST Latitude Longitude Course Direction KTS MPH feet Rate Location/Type
Sun 04:46:00 AM 56.0668 37.1833 320° Northwest  Level FlightAware Approximate
Sun 04:47:00 AM 56.1591 37.0449 320° Northwest  Level FlightAware Approximate
Sun 04:48:00 AM 56.2512 36.9059 320° Northwest  Level FlightAware Approximate
Sun 04:49:00 AM 56.3432 36.7663 320° Northwest  Level FlightAware Approximate
Sun 04:50:00 AM 56.4350 36.6260 320° Northwest  Level FlightAware Approximate
Sun 04:51:00 AM 56.5267 36.4850 320° Northwest  Level FlightAware Approximate
Sun 04:52:00 AM 56.6182 36.3433 320° Northwest  Level FlightAware Approximate
Sun 04:53:00 AM 56.7095 36.2009 319° Northwest  Level FlightAware Approximate
Sun 04:54:00 AM 56.8007 36.0578 319° Northwest  Level FlightAware Approximate
Sun 04:55:00 AM 56.8917 35.9141 319° Northwest  Level FlightAware Approximate
Sun 04:56:00 AM 56.9826 35.7696 319° Northwest  Level FlightAware Approximate
Sun 04:57:00 AM 57.0732 35.6244 319° Northwest  Level FlightAware Approximate
Sun 04:58:00 AM 57.1637 35.4785 319° Northwest  Level FlightAware Approximate
Sun 04:59:00 AM 57.2541 35.3319 319° Northwest  Level FlightAware Approximate
Sun 05:00:00 AM 57.3443 35.1846 319° Northwest  Level FlightAware Approximate
Sun 05:01:00 AM 57.4342 35.0366 319° Northwest  Level FlightAware Approximate
Sun 05:02:00 AM 57.5241 34.8878 318° Northwest  Level FlightAware Approximate
Sun 05:03:00 AM 57.6137 34.7383 318° Northwest  Level FlightAware Approximate
Sun 05:04:00 AM 57.6260 34.7157 315° West  Level FlightAware Approximate
Sun 05:05:00 AM 57.7108 34.5562 315° West  Level FlightAware Approximate
Sun 05:06:00 AM 57.7954 34.3959 315° West  Level FlightAware Approximate
Sun 05:07:00 AM 57.8797 34.2349 315° West  Level FlightAware Approximate
Sun 05:08:00 AM 57.9639 34.0731 314° West  Level FlightAware Approximate
Sun 05:09:00 AM 58.0478 33.9105 314° West  Level FlightAware Approximate
Sun 05:10:00 AM 58.1315 33.7472 314° West  Level FlightAware Approximate
Sun 05:11:00 AM 58.2151 33.5831 314° West  Level FlightAware Approximate
Sun 05:12:00 AM 58.2984 33.4182 314° West  Level FlightAware Approximate
Sun 05:13:00 AM 58.3815 33.2526 314° West  Level FlightAware Approximate
Sun 05:14:00 AM 58.4644 33.0862 314° West  Level FlightAware Approximate
Sun 05:15:00 AM 58.5470 32.9190 313° West  Level FlightAware Approximate
Sun 05:16:00 AM 58.6295 32.7510 313° West  Level FlightAware Approximate
Sun 05:17:00 AM 58.7117 32.5822 313° West  Level FlightAware Approximate
Sun 05:18:00 AM 58.7937 32.4126 313° West  Level FlightAware Approximate
Sun 05:19:00 AM 58.8755 32.2422 313° West  Level FlightAware Approximate
Sun 05:20:00 AM 58.9571 32.0710 313° West  Level FlightAware Approximate
Sun 05:21:00 AM 59.0384 31.8990 313° West  Level FlightAware Approximate
Sun 05:22:00 AM 59.1195 31.7262 312° West  Level FlightAware Approximate
Sun 05:23:00 AM 59.2004 31.5525 312° West  Level FlightAware Approximate
Sun 05:24:00 AM 59.2810 31.3780 312° West  Level FlightAware Approximate
Sun 05:25:00 AM 59.3614 31.2028 312° West  Level FlightAware Approximate
Sun 05:26:00 AM 59.4416 31.0266 312° West  Level FlightAware Approximate
Sun 05:27:00 AM 59.5215 30.8497 312° West  Level FlightAware Approximate
Sun 05:28:00 AM 59.6012 30.6719 312° West  Level FlightAware Approximate
Sun 05:29:00 AM 59.6807 30.4932 311° West  Level FlightAware Approximate
Sun 05:30:00 AM 59.7599 30.3137 311° West  Level FlightAware Approximate
Sun 05:31:00 AM 59.8388 30.1334 311° West  Level FlightAware Approximate
Sun 05:32:00 AM 59.9175 29.9522 311° West  Level FlightAware Approximate
Sun 05:33:00 AM 59.9960 29.7701 311° West  Level FlightAware Approximate
Sun 05:34:00 AM 60.0742 29.5872 311° West  Level FlightAware Approximate
Sun 05:35:00 AM 60.1522 29.4034 310° West  Level FlightAware Approximate
Sun 05:36:00 AM 60.2299 29.2188 310° West  Level FlightAware Approximate
Sun 05:37:00 AM 60.3073 29.0332 310° West  Level FlightAware Approximate
Sun 05:38:00 AM 60.3845 28.8468 310° West  Level FlightAware Approximate
Sun 05:39:00 AM 60.4614 28.6595 310° West  Level FlightAware Approximate
Sun 05:40:00 AM 60.5381 28.4713 310° West  Level FlightAware Approximate
Sun 05:41:00 AM 60.6145 28.2822 310° West  Level FlightAware Approximate
Sun 05:42:00 AM 60.6906 28.0923 309° West  Level FlightAware Approximate
Sun 05:43:00 AM 60.7664 27.9014 309° West  Level FlightAware Approximate
Sun 05:44:00 AM 60.8420 27.7096 309° West  Level FlightAware Approximate
Sun 05:45:00 AM 60.9173 27.5169 309° West  Level FlightAware Approximate
Sun 05:46:00 AM 60.9924 27.3233 309° West  Level FlightAware Approximate
Sun 05:47:00 AM 61.0671 27.1288 309° West  Level FlightAware Approximate
Sun 05:48:00 AM 61.1416 26.9334 308° West  Level FlightAware Approximate
Sun 05:49:00 AM 61.2158 26.7370 308° West  Level FlightAware Approximate
Sun 05:50:00 AM 61.2897 26.5397 308° West  Level FlightAware Approximate
Sun 05:51:00 AM 61.3633 26.3415 308° West  Level FlightAware Approximate
Sun 05:52:00 AM 61.4366 26.1424 308° West  Level FlightAware Approximate
Sun 05:53:00 AM 61.5097 25.9423 307° West  Level FlightAware Approximate
Sun 05:54:00 AM 61.5824 25.7413 307° West  Level FlightAware Approximate
Sun 05:55:00 AM 61.6548 25.5393 307° West  Level FlightAware Approximate
Sun 05:56:00 AM 61.7270 25.3364 307° West  Level FlightAware Approximate
Sun 05:57:00 AM 61.7988 25.1325 307° West  Level FlightAware Approximate
Sun 05:58:00 AM 61.8703 24.9277 307° West  Level FlightAware Approximate
Sun 05:59:00 AM 61.9416 24.7219 306° West  Level FlightAware Approximate
Sun 06:00:00 AM 62.0125 24.5152 306° West  Level FlightAware Approximate
Sun 06:01:00 AM 62.0831 24.3075 306° West  Level FlightAware Approximate
Sun 06:02:00 AM 62.1534 24.0988 306° West  Level FlightAware Approximate
Sun 06:03:00 AM 62.2234 23.8892 306° West  Level FlightAware Approximate
Sun 06:04:00 AM 62.2931 23.6786 305° West  Level FlightAware Approximate
Sun 06:05:00 AM 62.3624 23.4670 305° West  Level FlightAware Approximate
Sun 06:06:00 AM 62.4315 23.2545 305° West  Level FlightAware Approximate
Sun 06:07:00 AM 62.5002 23.0409 305° West  Level FlightAware Approximate
Sun 06:08:00 AM 62.5685 22.8264 305° West  Level FlightAware Approximate
Sun 06:09:00 AM 62.6366 22.6109 305° West  Level FlightAware Approximate
Sun 06:10:00 AM 62.7043 22.3944 304° West  Level FlightAware Approximate
Sun 06:11:00 AM 62.7717 22.1769 304° West  Level FlightAware Approximate
Sun 06:12:00 AM 62.8387 21.9584 304° West  Level FlightAware Approximate
Sun 06:13:00 AM 62.9057 21.7392 304° West  Level FlightAware Approximate
Sun 06:14:00 AM 62.9726 21.5194 304° West  Level FlightAware Approximate
Sun 06:15:00 AM 63.0391 21.2987 304° West  Level FlightAware Approximate
Sun 06:16:00 AM 63.1052 21.0769 303° West  Level FlightAware Approximate
Sun 06:17:00 AM 63.1710 20.8541 303° West  Level FlightAware Approximate
Sun 06:18:00 AM 63.2365 20.6303 303° West  Level FlightAware Approximate
Sun 06:19:00 AM 63.3016 20.4055 303° West  Level FlightAware Approximate
Sun 06:20:00 AM 63.3663 20.1796 303° West  Level FlightAware Approximate
Sun 06:21:00 AM 63.4307 19.9528 302° West  Level FlightAware Approximate
Sun 06:22:00 AM 63.4948 19.7249 302° West  Level FlightAware Approximate
Sun 06:23:00 AM 63.5584 19.4960 302° West  Level FlightAware Approximate
Sun 06:24:00 AM 63.6217 19.2661 302° West  Level FlightAware Approximate
Sun 06:25:00 AM 63.6847 19.0351 302° West  Level FlightAware Approximate
Sun 06:26:00 AM 63.7472 18.8032 301° West  Level FlightAware Approximate
Sun 06:27:00 AM 63.8094 18.5702 301° West  Level FlightAware Approximate
Sun 06:28:00 AM 63.8711 18.3360 301° West  Level FlightAware Approximate
Sun 06:29:00 AM 63.9322 18.1005 301° West  Level FlightAware Approximate
Sun 06:30:00 AM 63.9928 17.8640 300° West  Level FlightAware Approximate
Sun 06:31:00 AM 64.0531 17.6264 300° West  Level FlightAware Approximate
Sun 06:32:00 AM 64.1131 17.3878 300° West  Level FlightAware Approximate
Sun 06:33:00 AM 64.1726 17.1482 300° West  Level FlightAware Approximate
Sun 06:34:00 AM 64.2317 16.9075 300° West  Level FlightAware Approximate
Sun 06:35:00 AM 64.2905 16.6658 299° West  Level FlightAware Approximate
Sun 06:36:00 AM 64.3488 16.4231 299° West  Level FlightAware Approximate
Sun 06:37:00 AM 64.4067 16.1794 299° West  Level FlightAware Approximate
Sun 06:38:00 AM 64.4642 15.9347 299° West  Level FlightAware Approximate
Sun 06:39:00 AM 64.5213 15.6889 298° West  Level FlightAware Approximate
Sun 06:40:00 AM 64.5780 15.4420 298° West  Level FlightAware Approximate
Sun 06:41:00 AM 64.6343 15.1942 298° West  Level FlightAware Approximate
Sun 06:42:00 AM 64.6902 14.9453 298° West  Level FlightAware Approximate
Sun 06:43:00 AM 64.7457 14.6955 298° West  Level FlightAware Approximate
Sun 06:44:00 AM 64.8007 14.4445 297° West  Level FlightAware Approximate
Sun 06:45:00 AM 64.8553 14.1926 297° West  Level FlightAware Approximate
Sun 06:46:00 AM 64.9095 13.9396 297° West  Level FlightAware Approximate
Sun 06:47:00 AM 64.9632 13.6857 297° West  Level FlightAware Approximate
Sun 06:48:00 AM 65.0165 13.4307 296° West  Level FlightAware Approximate
Sun 06:49:00 AM 65.0694 13.1747 296° West  Level FlightAware Approximate
Sun 06:50:00 AM 65.1219 12.9177 296° West  Level FlightAware Approximate
Sun 06:51:00 AM 65.1739 12.6596 296° West  Level FlightAware Approximate
Sun 06:52:00 AM 65.2254 12.4006 295° West  Level FlightAware Approximate
Sun 06:53:00 AM 65.2765 12.1405 295° West  Level FlightAware Approximate
Sun 06:54:00 AM 65.3272 11.8794 295° West  Level FlightAware Approximate
Sun 06:55:00 AM 65.3774 11.6174 295° West  Level FlightAware Approximate
Sun 06:56:00 AM 65.4271 11.3543 295° West  Level FlightAware Approximate
Sun 06:57:00 AM 65.4764 11.0903 294° West  Level FlightAware Approximate
Sun 06:58:00 AM 65.5253 10.8252 294° West  Level FlightAware Approximate
Sun 06:59:00 AM 65.5736 10.5592 294° West  Level FlightAware Approximate
Sun 07:00:00 AM 65.6215 10.2921 294° West  Level FlightAware Approximate
Sun 07:01:00 AM 65.6689 10.0241 293° West  Level FlightAware Approximate
Sun 07:02:00 AM 65.7159 9.7551 293° West  Level FlightAware Approximate
Sun 07:03:00 AM 65.7624 9.4852 293° West  Level FlightAware Approximate
Sun 07:04:00 AM 65.8084 9.2143 293° West  Level FlightAware Approximate
Sun 07:05:00 AM 65.8539 8.9424 292° West  Level FlightAware Approximate
Sun 07:06:00 AM 65.8989 8.6695 292° West  Level FlightAware Approximate
Sun 07:07:00 AM 65.9435 8.3957 292° West  Level FlightAware Approximate
Sun 07:08:00 AM 65.9875 8.1209 292° West  Level FlightAware Approximate
Sun 07:09:00 AM 66.0311 7.8452 291° West  Level FlightAware Approximate
Sun 07:10:00 AM 66.0742 7.5686 291° West  Level FlightAware Approximate
Sun 07:11:00 AM 66.1168 7.2910 291° West  Level FlightAware Approximate
Sun 07:12:00 AM 66.1589 7.0125 291° West  Level FlightAware Approximate
Sun 07:13:00 AM 66.2004 6.7330 290° West  Level FlightAware Approximate
Sun 07:14:00 AM 66.2415 6.4527 290° West  Level FlightAware Approximate
Sun 07:15:00 AM 66.2821 6.1715 290° West  Level FlightAware Approximate
Sun 07:16:00 AM 66.3221 5.8893 290° West  Level FlightAware Approximate
Sun 07:17:00 AM 66.3617 5.6062 289° West  Level FlightAware Approximate
Sun 07:18:00 AM 66.4007 5.3223 289° West  Level FlightAware Approximate
Sun 07:19:00 AM 66.4392 5.0375 289° West  Level FlightAware Approximate
Sun 07:20:00 AM 66.4772 4.7518 289° West  Level FlightAware Approximate
Sun 07:21:00 AM 66.5147 4.4652 288° West  Level FlightAware Approximate
Sun 07:22:00 AM 66.5516 4.1778 288° West  Level FlightAware Approximate
Sun 07:23:00 AM 66.5880 3.8895 288° West  Level FlightAware Approximate
Sun 07:24:00 AM 66.6239 3.6004 287° West  Level FlightAware Approximate
Sun 07:25:00 AM 66.6592 3.3105 287° West  Level FlightAware Approximate
Sun 07:26:00 AM 66.6941 3.0197 287° West  Level FlightAware Approximate
Sun 07:27:00 AM 66.7283 2.7282 287° West  Level FlightAware Approximate
Sun 07:28:00 AM 66.7621 2.4358 286° West  Level FlightAware Approximate
Sun 07:29:00 AM 66.7953 2.1426 286° West  Level FlightAware Approximate
Sun 07:30:00 AM 66.8279 1.8486 286° West  Level FlightAware Approximate
Sun 07:31:00 AM 66.8600 1.5539 286° West  Level FlightAware Approximate
Sun 07:32:00 AM 66.8916 1.2584 285° West  Level FlightAware Approximate
Sun 07:33:00 AM 66.9226 0.9621 285° West  Level FlightAware Approximate
Sun 07:34:00 AM 66.9530 0.6651 285° West  Level FlightAware Approximate
Sun 07:35:00 AM 66.9829 0.3673 285° West  Level FlightAware Approximate
Sun 07:36:00 AM 67.0123 0.0688 284° West  Level FlightAware Approximate
Sun 07:37:00 AM 67.0410 -0.2304 284° West  Level FlightAware Approximate
Sun 07:38:00 AM 67.0692 -0.5303 284° West  Level FlightAware Approximate
Sun 07:39:00 AM 67.0969 -0.8308 283° West  Level FlightAware Approximate
Sun 07:40:00 AM 67.1240 -1.1321 283° West  Level FlightAware Approximate
Sun 07:41:00 AM 67.1505 -1.4340 283° West  Level FlightAware Approximate
Sun 07:42:00 AM 67.1764 -1.7366 283° West  Level FlightAware Approximate
Sun 07:43:00 AM 67.2018 -2.0399 282° West  Level FlightAware Approximate
Sun 07:44:00 AM 67.2266 -2.3438 282° West  Level FlightAware Approximate
Sun 07:45:00 AM 67.2508 -2.6482 282° West  Level FlightAware Approximate
Sun 07:46:00 AM 67.2744 -2.9533 281° West  Level FlightAware Approximate
Sun 07:47:00 AM 67.2975 -3.2590 281° West  Level FlightAware Approximate
Sun 07:48:00 AM 67.3200 -3.5653 281° West  Level FlightAware Approximate
Sun 07:49:00 AM 67.3419 -3.8721 281° West  Level FlightAware Approximate
Sun 07:50:00 AM 67.3632 -4.1795 280° West  Level FlightAware Approximate
Sun 07:51:00 AM 67.3839 -4.4875 280° West  Level FlightAware Approximate
Sun 07:52:00 AM 67.4040 -4.7959 280° West  Level FlightAware Approximate
Sun 07:53:00 AM 67.4235 -5.1049 279° West  Level FlightAware Approximate
Sun 07:54:00 AM 67.4424 -5.4144 279° West  Level FlightAware Approximate
Sun 07:55:00 AM 67.4607 -5.7244 279° West  Level FlightAware Approximate
Sun 07:56:00 AM 67.4785 -6.0348 279° West  Level FlightAware Approximate
Sun 07:57:00 AM 67.4956 -6.3457 278° West  Level FlightAware Approximate
Sun 07:58:00 AM 67.5121 -6.6571 278° West  Level FlightAware Approximate
Sun 07:59:00 AM 67.5280 -6.9689 278° West  Level FlightAware Approximate
Sun 08:00:00 AM 67.5434 -7.2810 277° West  Level FlightAware Approximate
Sun 08:01:00 AM 67.5581 -7.5936 277° West  Level FlightAware Approximate
Sun 08:02:00 AM 67.5722 -7.9066 277° West  Level FlightAware Approximate
Sun 08:03:00 AM 67.5857 -8.2199 277° West  Level FlightAware Approximate
Sun 08:04:00 AM 67.5986 -8.5336 276° West  Level FlightAware Approximate
Sun 08:05:00 AM 67.6109 -8.8476 276° West  Level FlightAware Approximate
Sun 08:06:00 AM 67.6226 -9.1619 276° West  Level FlightAware Approximate
Sun 08:07:00 AM 67.6337 -9.4766 275° West  Level FlightAware Approximate
Sun 08:08:00 AM 67.6442 -9.7915 275° West  Level FlightAware Approximate
Sun 08:09:00 AM 67.6541 -10.1067 275° West  Level FlightAware Approximate
Sun 08:10:00 AM 67.6634 -10.4221 275° West  Level FlightAware Approximate
Sun 08:11:00 AM 67.6720 -10.7378 274° West  Level FlightAware Approximate
Sun 08:12:00 AM 67.6801 -11.0538 274° West  Level FlightAware Approximate
Sun 08:13:00 AM 67.6875 -11.3699 274° West  Level FlightAware Approximate
Sun 08:14:00 AM 67.6943 -11.6862 273° West  Level FlightAware Approximate
Sun 08:15:00 AM 67.7005 -12.0027 273° West  Level FlightAware Approximate
Sun 08:16:00 AM 67.7061 -12.3194 273° West  Level FlightAware Approximate
Sun 08:17:00 AM 67.7111 -12.6361 273° West  Level FlightAware Approximate
Sun 08:18:00 AM 67.7154 -12.9531 272° West  Level FlightAware Approximate
Sun 08:19:00 AM 67.7192 -13.2701 272° West  Level FlightAware Approximate
Sun 08:20:00 AM 67.7223 -13.5872 272° West  Level FlightAware Approximate
Sun 08:21:00 AM 67.7248 -13.9044 271° West  Level FlightAware Approximate
Sun 08:22:00 AM 67.7267 -14.2217 271° West  Level FlightAware Approximate
Sun 08:23:00 AM 67.7280 -14.5390 271° West  Level FlightAware Approximate
Sun 08:24:00 AM 67.7287 -14.8563 270° West  Level FlightAware Approximate
Sun 08:25:00 AM 67.7287 -15.1736 270° West  Level FlightAware Approximate
Sun 08:26:00 AM 67.7282 -15.4910 270° West  Level FlightAware Approximate
Sun 08:27:00 AM 67.7270 -15.8083 270° West  Level FlightAware Approximate
Sun 08:28:00 AM 67.7252 -16.1255 269° West  Level FlightAware Approximate
Sun 08:29:00 AM 67.7228 -16.4428 269° West  Level FlightAware Approximate
Sun 08:30:00 AM 67.7197 -16.7599 269° West  Level FlightAware Approximate
Sun 08:31:00 AM 67.7161 -17.0770 268° West  Level FlightAware Approximate
Sun 08:32:00 AM 67.7118 -17.3939 268° West  Level FlightAware Approximate
Sun 08:33:00 AM 67.7069 -17.7107 268° West  Level FlightAware Approximate
Sun 08:34:00 AM 67.7014 -18.0274 268° West  Level FlightAware Approximate
Sun 08:35:00 AM 67.6953 -18.3439 267° West  Level FlightAware Approximate
Sun 08:36:00 AM 67.6886 -18.6603 267° West  Level FlightAware Approximate
Sun 08:37:00 AM 67.6813 -18.9764 267° West  Level FlightAware Approximate
Sun 08:38:00 AM 67.6733 -19.2924 266° West  Level FlightAware Approximate
Sun 08:39:00 AM 67.6648 -19.6081 266° West  Level FlightAware Approximate
Sun 08:40:00 AM 67.6556 -19.9236 266° West  Level FlightAware Approximate
Sun 08:41:00 AM 67.6458 -20.2388 265° West  Level FlightAware Approximate
Sun 08:42:00 AM 67.6354 -20.5538 265° West  Level FlightAware Approximate
Sun 08:43:00 AM 67.6244 -20.8685 265° West  Level FlightAware Approximate
Sun 08:44:00 AM 67.6128 -21.1829 265° West  Level FlightAware Approximate
Sun 08:45:00 AM 67.6006 -21.4969 264° West  Level FlightAware Approximate
Sun 08:46:00 AM 67.5878 -21.8107 264° West  Level FlightAware Approximate
Sun 08:47:00 AM 67.5743 -22.1240 264° West  Level FlightAware Approximate
Sun 08:48:00 AM 67.5602 -22.4370 263° West  Level FlightAware Approximate
Sun 08:49:00 AM 67.5455 -22.7496 263° West  Level FlightAware Approximate
Sun 08:50:00 AM 67.5301 -23.0618 263° West  Level FlightAware Approximate
Sun 08:51:00 AM 67.5142 -23.3736 263° West  Level FlightAware Approximate
Sun 08:52:00 AM 67.4977 -23.6850 262° West  Level FlightAware Approximate
Sun 08:53:00 AM 67.4805 -23.9959 262° West  Level FlightAware Approximate
Sun 08:54:00 AM 67.4628 -24.3064 262° West  Level FlightAware Approximate
Sun 08:55:00 AM 67.4445 -24.6164 261° West  Level FlightAware Approximate
Sun 08:56:00 AM 67.4256 -24.9259 261° West  Level FlightAware Approximate
Sun 08:57:00 AM 67.4061 -25.2350 261° West  Level FlightAware Approximate
Sun 08:58:00 AM 67.3860 -25.5435 261° West  Level FlightAware Approximate
Sun 08:59:00 AM 67.3653 -25.8514 260° West  Level FlightAware Approximate
Sun 09:00:00 AM 67.3440 -26.1589 260° West  Level FlightAware Approximate
Sun 09:01:00 AM 67.3222 -26.4658 260° West  Level FlightAware Approximate
Sun 09:02:00 AM 67.2998 -26.7721 259° West  Level FlightAware Approximate
Sun 09:03:00 AM 67.2767 -27.0778 259° West  Level FlightAware Approximate
Sun 09:04:00 AM 67.2531 -27.3830 259° West  Level FlightAware Approximate
Sun 09:05:00 AM 67.2290 -27.6875 259° West  Level FlightAware Approximate
Sun 09:06:00 AM 67.2042 -27.9914 258° West  Level FlightAware Approximate
Sun 09:07:00 AM 67.1789 -28.2947 258° West  Level FlightAware Approximate
Sun 09:08:00 AM 67.1530 -28.5974 258° West  Level FlightAware Approximate
Sun 09:09:00 AM 67.1265 -28.8994 257° West  Level FlightAware Approximate
Sun 09:10:00 AM 67.0994 -29.2007 257° West  Level FlightAware Approximate
Sun 09:11:00 AM 67.0718 -29.5013 257° West  Level FlightAware Approximate
Sun 09:12:00 AM 67.0437 -29.8013 257° West  Level FlightAware Approximate
Sun 09:13:00 AM 67.0149 -30.1005 256° West  Level FlightAware Approximate
Sun 09:14:00 AM 66.9856 -30.3991 256° West  Level FlightAware Approximate
Sun 09:15:00 AM 66.9558 -30.6969 256° West  Level FlightAware Approximate
Sun 09:16:00 AM 66.9254 -30.9940 255° West  Level FlightAware Approximate
Sun 09:17:00 AM 66.8944 -31.2903 255° West  Level FlightAware Approximate
Sun 09:18:00 AM 66.8629 -31.5859 255° West  Level FlightAware Approximate
Sun 09:19:00 AM 66.8308 -31.8807 255° West  Level FlightAware Approximate
Sun 09:20:00 AM 66.7982 -32.1747 254° West  Level FlightAware Approximate
Sun 09:21:00 AM 66.7650 -32.4679 254° West  Level FlightAware Approximate
Sun 09:22:00 AM 66.7313 -32.7604 254° West  Level FlightAware Approximate
Sun 09:23:00 AM 66.6971 -33.0520 254° West  Level FlightAware Approximate
Sun 09:24:00 AM 66.6623 -33.3429 253° West  Level FlightAware Approximate
Sun 09:25:00 AM 66.6270 -33.6329 253° West  Level FlightAware Approximate
Sun 09:26:00 AM 66.5912 -33.9221 253° West  Level FlightAware Approximate
Sun 09:27:00 AM 66.5550 -34.2105 253° West  Level FlightAware Approximate
Sun 09:28:00 AM 66.5182 -34.4981 252° West  Level FlightAware Approximate
Sun 09:29:00 AM 66.4809 -34.7849 252° West  Level FlightAware Approximate
Sun 09:30:00 AM 66.4431 -35.0707 252° West  Level FlightAware Approximate
Sun 09:31:00 AM 66.4047 -35.3557 252° West  Level FlightAware Approximate
Sun 09:32:00 AM 66.3659 -35.6399 251° West  Level FlightAware Approximate
Sun 09:33:00 AM 66.3265 -35.9231 251° West  Level FlightAware Approximate
Sun 09:34:00 AM 66.2866 -36.2054 251° West  Level FlightAware Approximate
Sun 09:35:00 AM 66.2462 -36.4869 250° West  Level FlightAware Approximate
Sun 09:36:00 AM 66.2053 -36.7674 250° West  Level FlightAware Approximate
Sun 09:37:00 AM 66.1638 -37.0471 250° West  Level FlightAware Approximate
Sun 09:38:00 AM 66.1219 -37.3258 250° West  Level FlightAware Approximate
Sun 09:39:00 AM 66.0795 -37.6035 249° West  Level FlightAware Approximate
Sun 09:40:00 AM 66.0366 -37.8804 249° West  Level FlightAware Approximate
Sun 09:41:00 AM 65.9932 -38.1563 249° West  Level FlightAware Approximate
Sun 09:42:00 AM 65.9493 -38.4313 249° West  Level FlightAware Approximate
Sun 09:43:00 AM 65.9049 -38.7053 248° West  Level FlightAware Approximate
Sun 09:44:00 AM 65.8600 -38.9784 248° West  Level FlightAware Approximate
Sun 09:45:00 AM 65.8146 -39.2505 248° West  Level FlightAware Approximate
Sun 09:46:00 AM 65.7688 -39.5216 248° West  Level FlightAware Approximate
Sun 09:47:00 AM 65.7224 -39.7918 247° West  Level FlightAware Approximate
Sun 09:48:00 AM 65.6756 -40.0610 247° West  Level FlightAware Approximate
Sun 09:49:00 AM 65.6283 -40.3293 247° West  Level FlightAware Approximate
Sun 09:50:00 AM 65.5806 -40.5965 247° West  Level FlightAware Approximate
Sun 09:51:00 AM 65.5324 -40.8628 246° West  Level FlightAware Approximate
Sun 09:52:00 AM 65.4837 -41.1281 246° West  Level FlightAware Approximate
Sun 09:53:00 AM 65.4346 -41.3924 246° West  Level FlightAware Approximate
Sun 09:54:00 AM 65.3850 -41.6557 246° West  Level FlightAware Approximate
Sun 09:55:00 AM 65.3349 -41.9180 246° West  Level FlightAware Approximate
Sun 09:56:00 AM 65.2844 -42.1793 245° Southwest  Level FlightAware Approximate
Sun 09:57:00 AM 65.2334 -42.4396 245° Southwest  Level FlightAware Approximate
Sun 09:58:00 AM 65.1820 -42.6988 245° Southwest  Level FlightAware Approximate
Sun 09:59:00 AM 65.1302 -42.9571 245° Southwest  Level FlightAware Approximate
Sun 10:00:00 AM 65.0779 -43.2144 244° Southwest  Level FlightAware Approximate
Sun 10:01:00 AM 65.0251 -43.4707 244° Southwest  Level FlightAware Approximate
Sun 10:02:00 AM 64.9720 -43.7259 244° Southwest  Level FlightAware Approximate
Sun 10:03:00 AM 64.9184 -43.9801 244° Southwest  Level FlightAware Approximate
Sun 10:04:00 AM 64.8643 -44.2333 243° Southwest  Level FlightAware Approximate
Sun 10:05:00 AM 64.8099 -44.4855 243° Southwest  Level FlightAware Approximate
Sun 10:06:00 AM 64.7550 -44.7367 243° Southwest  Level FlightAware Approximate
Sun 10:07:00 AM 64.6997 -44.9869 243° Southwest  Level FlightAware Approximate
Sun 10:08:00 AM 64.6439 -45.2360 243° Southwest  Level FlightAware Approximate
Sun 10:09:00 AM 64.5878 -45.4841 242° Southwest  Level FlightAware Approximate
Sun 10:10:00 AM 64.5312 -45.7312 242° Southwest  Level FlightAware Approximate
Sun 10:11:00 AM 64.4743 -45.9772 242° Southwest  Level FlightAware Approximate
Sun 10:12:00 AM 64.4169 -46.2222 242° Southwest  Level FlightAware Approximate
Sun 10:13:00 AM 64.3591 -46.4662 241° Southwest  Level FlightAware Approximate
Sun 10:14:00 AM 64.3009 -46.7092 241° Southwest  Level FlightAware Approximate
Sun 10:15:00 AM 64.2423 -46.9511 241° Southwest  Level FlightAware Approximate
Sun 10:16:00 AM 64.1833 -47.1921 241° Southwest  Level FlightAware Approximate
Sun 10:17:00 AM 64.1239 -47.4319 241° Southwest  Level FlightAware Approximate
Sun 10:18:00 AM 64.0641 -47.6708 240° Southwest  Level FlightAware Approximate
Sun 10:19:00 AM 64.0039 -47.9086 240° Southwest  Level FlightAware Approximate
Sun 10:20:00 AM 63.9434 -48.1455 240° Southwest  Level FlightAware Approximate
Sun 10:21:00 AM 63.8824 -48.3812 240° Southwest  Level FlightAware Approximate
Sun 10:22:00 AM 63.8211 -48.6160 239° Southwest  Level FlightAware Approximate
Sun 10:23:00 AM 63.7594 -48.8497 239° Southwest  Level FlightAware Approximate
Sun 10:24:00 AM 63.6973 -49.0825 239° Southwest  Level FlightAware Approximate
Sun 10:25:00 AM 63.6349 -49.3142 239° Southwest  Level FlightAware Approximate
Sun 10:26:00 AM 63.5720 -49.5448 239° Southwest  Level FlightAware Approximate
Sun 10:27:00 AM 63.5088 -49.7745 238° Southwest  Level FlightAware Approximate
Sun 10:28:00 AM 63.4453 -50.0031 238° Southwest  Level FlightAware Approximate
Sun 10:29:00 AM 63.3814 -50.2308 238° Southwest  Level FlightAware Approximate
Sun 10:29:50 AM 64.5833 -55.3167 237° Southwest 450 518 36,000  Level Gander Center
Sun 10:30:00 AM 63.3171 -50.4574 238° Southwest  Level FlightAware Approximate
Sun 10:30:50 AM 64.5167 -55.5667 238° Southwest 460 529 36,000  Level Gander Center
Sun 10:31:00 AM 63.2524 -50.6830 238° Southwest  Level FlightAware Approximate
Sun 10:31:50 AM 64.4500 -55.8000 237° Southwest 460 529 36,000  Level Gander Center
Sun 10:32:00 AM 63.1874 -50.9076 237° Southwest  Level FlightAware Approximate
Sun 10:32:50 AM 64.3833 -55.9667 227° Southwest 460 529 36,000  Level Gander Center
Sun 10:33:00 AM 63.1221 -51.1311 237° Southwest  Level FlightAware Approximate
Sun 10:33:50 AM 64.3167 -56.2167 238° Southwest 460 529 36,000  Level Gander Center
Sun 10:34:00 AM 63.0564 -51.3537 237° Southwest  Level FlightAware Approximate
Sun 10:35:00 AM 62.9903 -51.5753 237° Southwest  Level FlightAware Approximate
Sun 10:35:38 AM 64.1500 -56.5833 224° Southwest 410 472 36,000  Level Montreal Center
Sun 10:36:38 AM 64.0833 -56.8000 235° Southwest 460 529 36,000  Level Montreal Center
Sun 10:37:38 AM 64.0000 -57.0333 231° Southwest 450 518 36,000  Level Montreal Center
Sun 10:38:38 AM 63.9333 -57.2833 239° Southwest 460 529 36,000  Level Montreal Center
Sun 10:39:38 AM 63.8500 -57.4833 227° Southwest 460 529 36,000  Level Montreal Center
Sun 10:40:38 AM 63.7833 -57.7000 235° Southwest 450 518 36,000  Level Montreal Center
Sun 10:41:38 AM 63.7000 -57.9333 231° Southwest 450 518 36,000  Level Montreal Center
Sun 10:42:38 AM 63.6333 -58.1833 239° Southwest 460 529 36,000  Level Montreal Center
Sun 10:43:38 AM 63.5500 -58.3833 227° Southwest 440 506 36,000  Level Montreal Center
Sun 10:44:38 AM 63.4833 -58.6167 237° Southwest 460 529 36,000  Level Montreal Center
Sun 10:45:38 AM 63.4000 -58.8167 227° Southwest 450 518 36,000  Level Montreal Center
Sun 10:46:38 AM 63.3167 -59.0500 232° Southwest 450 518 36,000  Level Montreal Center
Sun 10:47:38 AM 63.2500 -59.2500 234° Southwest 440 506 36,000  Level Montreal Center
Sun 10:48:51 AM 63.1667 -59.6000 242° Southwest 450 518 36,000  Level Gander Center
Sun 10:49:51 AM 63.0833 -59.8167 230° Southwest 450 518 36,000  Level Gander Center
Sun 10:50:50 AM 63.0000 -60.0000 225° Southwest 450 518 36,000  Level Gander Center
Sun 10:51:50 AM 62.9167 -60.1833 225° Southwest 450 518 36,000  Level Gander Center
Sun 10:52:50 AM 62.8167 -60.4167 227° Southwest 450 518 36,000  Level Gander Center
Sun 10:53:50 AM 62.7333 -60.6000 225° Southwest 450 518 36,000  Level Gander Center
Sun 10:54:50 AM 62.6333 -60.7833 220° Southwest 450 518 36,000  Level Gander Center
Sun 10:55:50 AM 62.5500 -60.9667 225° Southwest 450 518 36,000  Level Gander Center
Sun 10:56:50 AM 62.4500 -61.1333 218° Southwest 450 518 36,000  Level Gander Center
Sun 10:57:50 AM 62.3667 -61.3167 226° Southwest 450 518 36,000  Level Gander Center
Sun 10:58:50 AM 62.2667 -61.5000 221° Southwest 450 518 36,000  Level Gander Center
Sun 10:59:50 AM 62.1833 -61.7167 231° Southwest 450 518 36,000  Level Gander Center
Sun 11:00:50 AM 62.0833 -61.8833 218° Southwest 450 518 36,000  Level Gander Center
Sun 11:01:50 AM 62.0000 -62.0667 226° Southwest 450 518 36,000  Level Gander Center
Sun 11:02:50 AM 61.9000 -62.2333 218° Southwest 450 518 36,000  Level Gander Center
Sun 11:03:50 AM 61.8000 -62.4333 223° Southwest 460 529 36,000  Level Gander Center
Sun 11:04:49 AM 61.7167 -62.5167 205° Southwest 450 518 36,000  Level Montreal Center
Sun 11:05:49 AM 61.6333 -62.7000 226° Southwest 450 518 36,000  Level Montreal Center
Sun 11:06:49 AM 61.5167 -62.8833 217° Southwest 450 518 36,000  Level Montreal Center
Sun 11:07:49 AM 61.4333 -63.0667 226° Southwest 440 506 36,000  Level Montreal Center
Sun 11:08:49 AM 61.3500 -63.2167 221° Southwest 440 506 36,000  Level Montreal Center
Sun 11:09:49 AM 61.2667 -63.3833 224° Southwest 440 506 36,000  Level Montreal Center
Sun 11:10:49 AM 61.1667 -63.5667 222° Southwest 450 518 36,000  Level Montreal Center
Sun 11:11:49 AM 61.0667 -63.7000 213° Southwest 430 495 36,000  Level Montreal Center
Sun 11:12:49 AM 60.9833 -63.8833 227° Southwest 440 506 36,000  Level Montreal Center
Sun 11:13:49 AM 60.8833 -64.0500 219° Southwest 440 506 36,000  Level Montreal Center
Sun 11:14:49 AM 60.8000 -64.2333 227° Southwest 440 506 36,000  Level Montreal Center
Sun 11:15:49 AM 60.6833 -64.3667 209° Southwest 440 506 36,000  Level Montreal Center
Sun 11:16:49 AM 60.6000 -64.5333 225° Southwest 440 506 36,000  Level Montreal Center
Sun 11:17:49 AM 60.5167 -64.7000 225° Southwest 440 506 36,000  Level Montreal Center
Sun 11:18:49 AM 60.4000 -64.8500 212° Southwest 440 506 36,000  Level Montreal Center
Sun 11:19:49 AM 60.3167 -65.0167 225° Southwest 440 506 36,000  Level Montreal Center
Sun 11:20:49 AM 60.2333 -65.1833 225° Southwest 430 495 36,000  Level Montreal Center
Sun 11:21:49 AM 60.1333 -65.3000 210° Southwest 430 495 36,000  Level Montreal Center
Sun 11:22:49 AM 60.0333 -65.4833 223° Southwest 440 506 36,000  Level Montreal Center
Sun 11:23:49 AM 59.9333 -65.6000 210° Southwest 440 506 36,000  Level Montreal Center
Sun 11:24:49 AM 59.8500 -65.7667 225° Southwest 440 506 36,000  Level Montreal Center
Sun 11:25:49 AM 59.7667 -65.9333 225° Southwest 440 506 36,000  Level Montreal Center
Sun 11:26:49 AM 59.6500 -66.0667 210° Southwest 430 495 36,000  Level Montreal Center
Sun 11:27:49 AM 59.5667 -66.2167 222° Southwest 440 506 36,000  Level Montreal Center
Sun 11:28:49 AM 59.4500 -66.3833 216° Southwest 440 506 36,000  Level Montreal Center
Sun 11:29:49 AM 59.3667 -66.5167 219° Southwest 430 495 36,000  Level Montreal Center
Sun 11:30:49 AM 59.2667 -66.6667 217° Southwest 430 495 36,000  Level Montreal Center
Sun 11:31:49 AM 59.1833 -66.8167 223° Southwest 440 506 36,000  Level Montreal Center
Sun 11:32:49 AM 59.0667 -66.9500 210° Southwest 440 506 36,000  Level Montreal Center
Sun 11:33:49 AM 58.9833 -67.1000 223° Southwest 440 506 36,000  Level Montreal Center
Sun 11:34:49 AM 58.8833 -67.2333 215° Southwest 440 506 36,000  Level Montreal Center
Sun 11:35:49 AM 58.8000 -67.3833 223° Southwest 440 506 36,000  Level Montreal Center
Sun 11:36:49 AM 58.6833 -67.5333 214° Southwest 430 495 36,000  Level Montreal Center
Sun 11:37:49 AM 58.6000 -67.6500 216° Southwest 440 506 36,000  Level Montreal Center
Sun 11:38:49 AM 58.5000 -67.8000 218° Southwest 440 506 36,000  Level Montreal Center
Sun 11:39:49 AM 58.4167 -67.9333 220° Southwest 440 506 36,000  Level Montreal Center
Sun 11:40:49 AM 58.3000 -68.0833 214° Southwest 440 506 36,000  Level Montreal Center
Sun 11:41:49 AM 58.1833 -68.2333 214° Southwest 450 518 36,000  Level Montreal Center
Sun 11:43:22 AM 58.0667 -68.4167 220° Southwest 470 541 36,000  Level Montreal Center
Sun 11:44:22 AM 57.9500 -68.5667 214° Southwest 450 518 36,000  Level Montreal Center
Sun 11:45:22 AM 57.8667 -68.7167 224° Southwest 440 506 36,000  Level Montreal Center
Sun 11:46:22 AM 57.7667 -68.8333 212° Southwest 440 506 36,000  Level Montreal Center
Sun 11:47:22 AM 57.6667 -68.9667 216° Southwest 440 506 36,000  Level Montreal Center
Sun 11:48:22 AM 57.5667 -69.1167 219° Southwest 430 495 36,000  Level Montreal Center
Sun 11:49:22 AM 57.4667 -69.2333 212° Southwest 430 495 36,000  Level Montreal Center
Sun 11:50:22 AM 57.3833 -69.3667 221° Southwest 430 495 36,000  Level Montreal Center
Sun 11:51:22 AM 57.2833 -69.4833 212° Southwest 430 495 36,000  Level Montreal Center
Sun 11:52:22 AM 57.1667 -69.6333 215° Southwest 430 495 36,000  Level Montreal Center
Sun 11:53:22 AM 57.0833 -69.7667 221° Southwest 430 495 36,000  Level Montreal Center
Sun 11:54:22 AM 56.9833 -69.9000 216° Southwest 430 495 36,000  Level Montreal Center
Sun 11:55:22 AM 56.8667 -70.0167 209° Southwest 430 495 36,000  Level Montreal Center
Sun 11:56:22 AM 56.7667 -70.1500 216° Southwest 430 495 36,000  Level Montreal Center
Sun 11:57:22 AM 56.6833 -70.2667 218° Southwest 430 495 36,000  Level Montreal Center
Sun 11:58:22 AM 56.5833 -70.4000 216° Southwest 430 495 36,000  Level Montreal Center
Sun 11:59:22 AM 56.4833 -70.5333 216° Southwest 430 495 36,000  Level Montreal Center
Sun 12:00:22 PM 56.3667 -70.6333 205° Southwest 430 495 36,000  Level Montreal Center
Sun 12:01:22 PM 56.2833 -70.7667 222° Southwest 430 495 36,000  Level Montreal Center
Sun 12:02:22 PM 56.1667 -70.8833 209° Southwest 440 506 36,000  Level Montreal Center
Sun 12:03:22 PM 56.0667 -71.0167 217° Southwest 440 506 36,000  Level Montreal Center
Sun 12:04:22 PM 55.9667 -71.1500 217° Southwest 430 495 36,000  Level Montreal Center
Sun 12:05:22 PM 55.8833 -71.2500 214° Southwest 440 506 36,000  Level Montreal Center
Sun 12:06:22 PM 55.7833 -71.3833 217° Southwest 430 495 36,000  Level Montreal Center
Sun 12:07:22 PM 55.6667 -71.4833 206° Southwest 430 495 36,000  Level Montreal Center
Sun 12:08:22 PM 55.5667 -71.6167 217° Southwest 440 506 36,000  Level Montreal Center
Sun 12:09:22 PM 55.4667 -71.7500 217° Southwest 430 495 36,000  Level Montreal Center
Sun 12:10:22 PM 55.3667 -71.8500 210° Southwest 440 506 36,000  Level Montreal Center
Sun 12:11:22 PM 55.2667 -71.9667 214° Southwest 440 506 36,000  Level Montreal Center
Sun 12:12:22 PM 55.1667 -72.1000 217° Southwest 440 506 36,000  Level Montreal Center
Sun 12:13:22 PM 55.0500 -72.2000 206° Southwest 440 506 36,000  Level Montreal Center
Sun 12:14:22 PM 54.9500 -72.3333 217° Southwest 440 506 36,000  Level Montreal Center
Sun 12:15:22 PM 54.8500 -72.4500 214° Southwest 440 506 36,000  Level Montreal Center
Sun 12:16:22 PM 54.7333 -72.5500 206° Southwest 440 506 36,000  Level Montreal Center
Sun 12:17:22 PM 54.6500 -72.6667 219° Southwest 440 506 36,000  Level Montreal Center
Sun 12:18:22 PM 54.5500 -72.8000 218° Southwest 440 506 36,000  Level Montreal Center
Sun 12:19:22 PM 54.4333 -72.9000 207° Southwest 440 506 36,000  Level Montreal Center
Sun 12:20:22 PM 54.3333 -73.0167 214° Southwest 440 506 36,000  Level Montreal Center
Sun 12:21:22 PM 54.2333 -73.1333 214° Southwest 440 506 36,000  Level Montreal Center
Sun 12:22:22 PM 54.1333 -73.2333 210° Southwest 440 506 36,000  Level Montreal Center
Sun 12:23:22 PM 54.0167 -73.3500 210° Southwest 440 506 36,000  Level Montreal Center
Sun 12:24:22 PM 53.9167 -73.4833 218° Southwest 440 506 36,000  Level Montreal Center
Sun 12:25:22 PM 53.8000 -73.6000 211° Southwest 440 506 36,000  Level Montreal Center
Sun 12:26:22 PM 53.7000 -73.6833 206° Southwest 440 506 36,000  Level Montreal Center
Sun 12:27:22 PM 53.5833 -73.8000 211° Southwest 440 506 36,000  Level Montreal Center
Sun 12:28:22 PM 53.4833 -73.9000 211° Southwest 440 506 36,000  Level Montreal Center
Sun 12:29:22 PM 53.3667 -73.9833 203° Southwest 450 518 36,000  Level Montreal Center
Sun 12:30:22 PM 53.2500 -74.0833 207° Southwest 450 518 36,000  Level Montreal Center
Sun 12:31:22 PM 53.1333 -74.1667 203° Southwest 450 518 36,000  Level Montreal Center
Sun 12:32:22 PM 53.0333 -74.2500 207° Southwest 450 518 36,000  Level Montreal Center
Sun 12:33:22 PM 52.9167 -74.3500 207° Southwest 450 518 36,000  Level Montreal Center
Sun 12:34:22 PM 52.8000 -74.4333 203° Southwest 450 518 36,000  Level Montreal Center
Sun 12:35:22 PM 52.7000 -74.5500 215° Southwest 450 518 36,000  Level Montreal Center
Sun 12:36:22 PM 52.5833 -74.6333 203° Southwest 460 529 36,000 300 Level Montreal Center
Sun 12:37:22 PM 52.4500 -74.7167 201° Southwest 450 518 36,600 750 Climbing Montreal Center
Sun 12:38:22 PM 52.3500 -74.8000 207° Southwest 450 518 37,500 700 Climbing Montreal Center
Sun 12:39:22 PM 52.2333 -74.9000 208° Southwest 440 506 38,000 250 Climbing Montreal Center
Sun 12:40:22 PM 52.1167 -75.0000 208° Southwest 460 529 38,000  Level Montreal Center
Sun 12:41:22 PM 52.0000 -75.0833 204° Southwest 470 541 38,000  Level Montreal Center
Sun 12:42:22 PM 51.8833 -75.1667 204° Southwest 460 529 38,000  Level Montreal Center
Sun 12:43:22 PM 51.7667 -75.2500 204° Southwest 460 529 38,000  Level Montreal Center
Sun 12:44:22 PM 51.6500 -75.3667 212° Southwest 460 529 38,000  Level Montreal Center
Sun 12:45:22 PM 51.5333 -75.4500 204° Southwest 450 518 38,000  Level Montreal Center
Sun 12:46:22 PM 51.4167 -75.5333 204° Southwest 460 529 38,000  Level Montreal Center
Sun 12:47:22 PM 51.3167 -75.6167 208° Southwest 460 529 38,000  Level Montreal Center
Sun 12:48:22 PM 51.1833 -75.7000 201° Southwest 460 529 38,000  Level Montreal Center
Sun 12:49:22 PM 51.0833 -75.8000 212° Southwest 460 529 38,000  Level Montreal Center
Sun 12:50:22 PM 50.9500 -75.8833 201° Southwest 460 529 38,000  Level Montreal Center
Sun 12:51:22 PM 50.8500 -75.9667 208° Southwest 460 529 38,000  Level Montreal Center
Sun 12:52:22 PM 50.7167 -76.0500 202° Southwest 460 529 38,000  Level Montreal Center
Sun 12:53:22 PM 50.6000 -76.1500 209° Southwest 470 541 38,000  Level Montreal Center
Sun 12:54:22 PM 50.4833 -76.2333 204° Southwest 470 541 38,000  Level Montreal Center
Sun 12:55:22 PM 50.3667 -76.3000 200° South 470 541 38,000  Level Montreal Center
Sun 12:56:22 PM 50.2500 -76.3833 205° Southwest 470 541 38,000  Level Montreal Center
Sun 12:57:22 PM 50.1333 -76.4833 209° Southwest 470 541 38,000  Level Montreal Center
Sun 12:58:22 PM 50.0000 -76.5667 202° Southwest 470 541 38,000  Level Montreal Center
Sun 12:59:22 PM 49.8833 -76.6667 209° Southwest 470 541 38,000  Level Montreal Center
Sun 01:00:22 PM 49.7667 -76.7500 205° Southwest 470 541 38,000  Level Montreal Center
Sun 01:01:22 PM 49.6333 -76.8167 198° South 470 541 38,000  Level Montreal Center
Sun 01:02:22 PM 49.5333 -76.9000 208° Southwest 450 518 38,000  Level Montreal Center
Sun 01:03:22 PM 49.4000 -77.0000 206° Southwest 490 564 38,000  Level Montreal Center
Sun 01:04:22 PM 49.2833 -77.0667 200° South 470 541 38,000  Level Montreal Center
Sun 01:05:22 PM 49.1667 -77.1500 205° Southwest 470 541 38,000  Level Montreal Center
Sun 01:06:22 PM 49.0500 -77.2500 209° Southwest 480 552 38,000  Level Montreal Center
Sun 01:07:22 PM 48.9167 -77.3167 198° South 470 541 38,000  Level Montreal Center
Sun 01:08:22 PM 48.7833 -77.4000 202° Southwest 470 541 38,000  Level Montreal Center
Sun 01:09:22 PM 48.6667 -77.5000 210° Southwest 480 552 38,000  Level Montreal Center
Sun 01:10:22 PM 48.5500 -77.5667 201° Southwest 480 552 38,000  Level Montreal Center
Sun 01:11:22 PM 48.4333 -77.6333 201° Southwest 480 552 38,000  Level Montreal Center
Sun 01:12:22 PM 48.3167 -77.7333 210° Southwest 480 552 38,000  Level Montreal Center
Sun 01:13:22 PM 48.1833 -77.8000 198° South 480 552 38,000  Level Montreal Center
Sun 01:14:22 PM 48.0667 -77.8833 206° Southwest 480 552 38,000  Level Montreal Center
Sun 01:15:22 PM 47.9167 -77.9500 197° South 480 552 38,000  Level Montreal Center
Sun 01:16:22 PM 47.8000 -78.0500 210° Southwest 490 564 38,000  Level Montreal Center
Sun 01:17:22 PM 47.6833 -78.1167 201° Southwest 490 564 38,000  Level Montreal Center
Sun 01:18:22 PM 47.5500 -78.1833 199° South 490 564 38,000  Level Montreal Center
Sun 01:19:22 PM 47.4333 -78.2500 201° Southwest 490 564 38,000  Level Montreal Center
Sun 01:20:22 PM 47.3000 -78.3167 199° South 490 564 38,000  Level Montreal Center
Sun 01:21:22 PM 47.1833 -78.3833 201° Southwest 490 564 38,000  Level Montreal Center
Sun 01:22:22 PM 47.0333 -78.4833 204° Southwest 490 564 38,000  Level Montreal Center
Sun 01:23:22 PM 46.9167 -78.5500 201° Southwest 490 564 38,000  Level Montreal Center
Sun 01:24:22 PM 46.7833 -78.6167 199° South 490 564 38,000  Level Montreal Center
Sun 01:25:04 PM 46.7000 -78.6333 188° South 490 564 38,000  Level Toronto Center
Sun 01:26:04 PM 46.5667 -78.7167 203° Southwest 490 564 38,000  Level Toronto Center
Sun 01:27:04 PM 46.4500 -78.7833 201° Southwest 490 564 38,000  Level Toronto Center
Sun 01:28:04 PM 46.3167 -78.8667 203° Southwest 490 564 38,000  Level Toronto Center
Sun 01:29:04 PM 46.1833 -78.9167 195° South 490 564 38,000  Level Toronto Center
Sun 01:30:04 PM 46.0667 -78.9833 202° Southwest 480 552 38,000  Level Toronto Center
Sun 01:36:22 PM 45.2531 -79.4456 202° Southwest 500 575 38,000  Level FlightAware ADS-B (CYKF)
Sun 01:37:40 PM 45.1938 -79.4766 200° South 501 577 38,000  Level FlightAware ADS-B (CYKF)
Sun 01:42:19 PM 44.5164 -79.8493 201° Southwest 482 555 38,000  Level FlightAware ADS-B (CYKF)
Sun 01:44:47 PM 44.2190 -80.1193 213° Southwest 483 556 38,000  Level FlightAware ADS-B (CYKF)
Sun 01:45:27 PM 44.1430 -80.1874 213° Southwest 484 557 38,000  Level FlightAware ADS-B (CYKF)
Sun 01:46:07 PM 44.0614 -80.2599 213° Southwest 485 558 38,000  Level FlightAware ADS-B (CYKF)
Sun 01:46:47 PM 43.9863 -80.3263 212° Southwest 485 558 38,000  Level FlightAware ADS-B (CYKF)
Sun 01:47:21 PM 43.9210 -80.3840 212° Southwest 485 558 38,000  Level FlightAware ADS-B
Sun 01:48:04 PM 43.8401 -80.4551 212° Southwest 484 557 38,000  Level FlightAware ADS-B
Sun 01:48:45 PM 43.7676 -80.5188 212° Southwest 485 558 38,000  Level FlightAware ADS-B (CYKF)
Sun 01:49:33 PM 43.6880 -80.5885 212° Southwest 488 562 38,000  Level FlightAware ADS-B
Sun 01:50:04 PM 43.6133 -80.6536 212° Southwest 488 562 38,000  Level FlightAware ADS-B (CYKF)
Sun 01:50:55 PM 43.5168 -80.7376 212° Southwest 486 559 38,000  Level FlightAware ADS-B
Sun 01:51:43 PM 43.4297 -80.8129 212° Southwest 487 560 38,000  Level FlightAware ADS-B (CYKF)
Sun 01:52:27 PM 43.3420 -80.8886 212° Southwest 487 560 38,000  Level FlightAware ADS-B (CYKF)
Sun 01:53:05 PM 43.3887 -80.8483 32° Northeast 489 563 38,000  Level FlightAware ADS-B
Sun 01:54:07 PM 43.1505 -81.0530 212° Southwest 492 566 38,000  Level FlightAware ADS-B (CYKF)
Sun 01:54:43 PM 43.0818 -81.1115 212° Southwest 491 565 38,000  Level FlightAware ADS-B (CYKF)
Sun 01:55:26 PM 42.9932 -81.1742 207° Southwest 503 579 38,000  Level FlightAware ADS-B (CYKF)
Sun 01:56:26 PM 42.8681 -81.2533 205° Southwest 500 575 38,000  Level FlightAware ADS-B (CYKF)
Sun 01:57:27 PM 42.8112 -81.2890 205° Southwest 500 575 38,000  Level FlightAware ADS-B (CYKF)
Sun 01:59:08 PM 42.5551 -81.4461 204° Southwest 497 572 38,000  Level FlightAware ADS-B (CYKF)
Sun 02:00:06 PM 42.4660 -81.5004 204° Southwest 495 570 38,000  Level FlightAware ADS-B (CYKF)
Sun 02:01:30 PM 42.2717 -81.6183 204° Southwest 495 570 38,000  Level FlightAware ADS-B (CYKF)
Sun 02:02:42 PM 42.0812 -81.7328 204° Southwest 490 564 38,000  Level FlightAware ADS-B (CYKF)
Sun 02:03:47 PM 41.9517 -81.8114 204° Southwest 485 558 38,000  Level Cleveland Center
Sun 02:04:49 PM 41.8269 -81.8844 204° Southwest 486 559 38,000  Level Cleveland Center
Sun 02:05:51 PM 41.7036 -81.9575 204° Southwest 484 557 38,000  Level Cleveland Center
Sun 02:06:52 PM 41.5794 -82.0314 204° Southwest 486 559 38,000  Level Cleveland Center
Sun 02:07:54 PM 41.4539 -82.1039 203° Southwest 490 564 38,000  Level Cleveland Center
Sun 02:08:55 PM 41.3272 -82.1714 202° Southwest 492 566 38,000  Level Cleveland Center
Sun 02:09:57 PM 41.1917 -82.2203 195° South 504 580 38,000  Level Cleveland Center
Sun 02:10:58 PM 41.0333 -82.2778 195° South 505 581 38,000  Level Cleveland Center
Sun 02:12:00 PM 40.8958 -82.3267 195° South 509 586 38,000  Level Cleveland Center
Sun 02:12:47 PM 40.8042 -82.3589 195° South 507 583 38,000  Level Indianapolis Center
Sun 02:13:49 PM 40.6683 -82.4078 195° South 505 581 38,000  Level Indianapolis Center
Sun 02:14:50 PM 40.5092 -82.4633 195° South 504 580 38,000  Level Indianapolis Center
Sun 02:20:19 PM 39.7444 -82.6162 195° South 508 585 38,000  Level FlightAware ADS-B
Sun 02:20:54 PM 39.6651 -82.6215 183° South 505 581 38,000  Level FlightAware ADS-B
Sun 02:21:49 PM 39.5668 -82.6279 183° South 505 581 38,000  Level FlightAware ADS-B
Sun 02:22:19 PM 39.4742 -82.6341 183° South 508 585 38,000  Level FlightAware ADS-B
Sun 02:23:03 PM 39.3617 -82.6417 183° South 506 582 38,000  Level FlightAware ADS-B
Sun 02:23:49 PM 39.2535 -82.6489 183° South 503 579 38,000  Level FlightAware ADS-B
Sun 02:24:19 PM 39.1848 -82.6536 183° South 503 579 38,000  Level FlightAware ADS-B
Sun 02:24:49 PM 39.1316 -82.6571 183° South 505 581 38,000  Level FlightAware ADS-B
Sun 02:25:35 PM 39.0079 -82.6651 183° South 504 580 38,000  Level FlightAware ADS-B
Sun 02:26:35 PM 38.8726 -82.6741 183° South 507 583 38,000  Level FlightAware ADS-B
Sun 02:27:19 PM 38.7709 -82.6808 183° South 506 582 38,000  Level FlightAware ADS-B
Sun 02:28:16 PM 38.6319 -82.6900 183° South 506 582 38,000  Level FlightAware ADS-B
Sun 02:32:45 PM 38.0637 -82.9346 199° South 490 564 38,000  Level FlightAware ADS-B
Sun 02:34:16 PM 37.8690 -83.0236 200° South 485 558 38,000  Level FlightAware ADS-B
Sun 02:39:58 PM 37.2176 -83.3179 200° South 486 559 38,000  Level FlightAware ADS-B
Sun 02:40:31 PM 37.0842 -83.3781 200° South 483 556 38,000  Level Indianapolis Center
Sun 02:41:32 PM 36.9586 -83.4342 200° South 482 555 38,000  Level Indianapolis Center
Sun 02:42:34 PM 36.8308 -83.4903 199° South 488 562 38,000  Level Indianapolis Center
Sun 02:43:36 PM 36.7019 -83.5472 200° South 490 564 38,000  Level Indianapolis Center
Sun 02:44:37 PM 36.5519 -83.6122 199° South 491 565 38,000  Level Indianapolis Center
Sun 02:45:39 PM 36.4283 -83.6678 200° South 484 557 38,000  Level Indianapolis Center
Sun 02:46:41 PM 36.3006 -83.7242 200° South 484 557 38,000  Level Indianapolis Center
Sun 02:47:43 PM 36.1719 -83.7786 199° South 485 558 38,000  Level Indianapolis Center
Sun 02:48:44 PM 36.0444 -83.8336 199° South 483 556 38,000  Level Indianapolis Center
Sun 02:53:58 PM 35.3000 -84.0413 199° South 473 544 38,000  Level FlightAware ADS-B (KDZJ)
Sun 02:54:44 PM 35.1998 -84.0653 191° South 472 543 38,000  Level FlightAware ADS-B (KDZJ)
Sun 02:55:26 PM 35.1088 -84.0872 191° South 488 562 38,000  Level FlightAware ADS-B (KDZJ)
Sun 02:56:05 PM 35.0220 -84.1080 191° South 488 562 38,000  Level FlightAware ADS-B (KDZJ)
Sun 02:56:45 PM 34.9320 -84.1295 191° South 477 549 38,000  Level FlightAware ADS-B (KDZJ)
Sun 02:57:22 PM 34.8512 -84.1487 191° South 477 549 38,000  Level FlightAware ADS-B (KDZJ)
Sun 02:58:04 PM 34.7587 -84.1706 191° South 488 562 38,000  Level FlightAware ADS-B (KDZJ)
Sun 02:58:44 PM 34.6702 -84.1917 191° South 475 547 38,000  Level FlightAware ADS-B (KDZJ)
Sun 02:59:45 PM 34.5351 -84.2236 191° South 488 562 38,000  Level FlightAware ADS-B (KDZJ)
Sun 03:00:45 PM 34.4005 -84.2553 191° South 488 562 38,000  Level FlightAware ADS-B (KDZJ)
Sun 03:01:25 PM 34.3129 -84.2758 191° South 478 550 38,000  Level FlightAware ADS-B (KDZJ)
Sun 03:02:06 PM 34.2235 -84.2968 191° South 478 550 38,000  Level FlightAware ADS-B (KDZJ)
Sun 03:02:45 PM 34.1367 -84.3171 191° South 489 563 38,000  Level FlightAware ADS-B (KDZJ)
Sun 03:03:26 PM 34.0463 -84.3383 191° South 479 551 38,000  Level FlightAware ADS-B (KDZJ)
Sun 03:04:04 PM 33.9617 -84.3580 191° South 488 562 38,000  Level FlightAware ADS-B (KDZJ)
Sun 03:05:03 PM 33.8919 -84.3742 191° South 491 565 38,000  Level Atlanta Center
Sun 03:06:03 PM 33.7583 -84.4061 191° South 491 565 38,000  Level Atlanta Center
Sun 03:07:03 PM 33.6119 -84.4353 189° South 491 565 38,000  Level Atlanta Center
Sun 03:08:03 PM 33.4742 -84.4322 179° South 486 559 38,000  Level Atlanta Center
Sun 03:09:03 PM 33.3406 -84.4317 180° South 481 554 38,000  Level Atlanta Center
Sun 03:10:03 PM 33.2031 -84.4311 180° South 481 554 38,000  Level Atlanta Center
Sun 03:11:03 PM 33.0819 -84.4281 179° South 481 554 38,000  Level Atlanta Center
Sun 03:12:03 PM 32.9442 -84.4250 179° South 487 560 38,000 -250 Level Atlanta Center
Sun 03:13:03 PM 32.8042 -84.4244 180° South 499 574 37,500 -500 Descending Atlanta Center
Sun 03:14:03 PM 32.6519 -84.4164 177° South 499 574 37,000 -250 Descending Atlanta Center
Sun 03:15:03 PM 32.5100 -84.4156 180° South 499 574 37,000  Level Atlanta Center
Sun 03:16:03 PM 32.3700 -84.4103 178° South 499 574 37,000  Level Atlanta Center
Sun 03:17:03 PM 32.2303 -84.4072 179° South 499 574 37,000  Level Atlanta Center
Sun 03:18:09 PM 32.0864 -84.4056 179° South 504 580 37,000  Level Jacksonville Center
Sun 03:19:09 PM 31.9489 -84.4008 178° South 504 580 37,000  Level Jacksonville Center
Sun 03:20:09 PM 31.8089 -84.3986 179° South 504 580 37,000  Level Jacksonville Center
Sun 03:21:09 PM 31.6692 -84.3842 175° South 504 580 37,000  Level Jacksonville Center
Sun 03:26:53 PM 30.9241 -84.0321 175° South 500 575 37,000  Level FlightAware ADS-B (KONZ)
Sun 03:27:43 PM 30.8070 -83.9780 158° South 500 575 37,000  Level FlightAware ADS-B (KONZ)
Sun 03:28:21 PM 30.7147 -83.9355 158° South 500 575 37,000  Level FlightAware ADS-B (KONZ)
Sun 03:28:52 PM 30.6485 -83.9052 158° South 500 575 37,000  Level FlightAware ADS-B (KONZ)
Sun 03:29:32 PM 30.5685 -83.8685 158° South 500 575 37,000  Level FlightAware ADS-B (KONZ)
Sun 03:30:09 PM 30.4807 -83.8285 159° South 501 577 37,000  Level FlightAware ADS-B (KONZ)
Sun 03:30:51 PM 30.3914 -83.7877 158° South 500 575 37,000  Level FlightAware ADS-B (KONZ)
Sun 03:31:30 PM 30.3152 -83.7530 159° South 501 577 37,000  Level FlightAware ADS-B (KONZ)
Sun 03:32:13 PM 30.2129 -83.7063 158° South 506 582 37,000  Level FlightAware ADS-B (KONZ)
Sun 03:33:04 PM 30.1028 -83.6565 159° South 507 583 37,000  Level FlightAware ADS-B (KONZ)
Sun 03:34:09 PM 29.9786 -83.6000 159° South 505 581 37,000  Level Jacksonville Center
Sun 03:35:09 PM 29.8536 -83.5464 160° South 505 581 37,000  Level Jacksonville Center
Sun 03:36:09 PM 29.7264 -83.4881 158° South 493 567 37,000  Level Jacksonville Center
Sun 03:37:09 PM 29.6014 -83.4325 159° South 493 567 37,000  Level Jacksonville Center
Sun 03:38:09 PM 29.4744 -83.3769 159° South 493 567 37,000  Level Jacksonville Center
Sun 03:39:09 PM 29.3367 -83.3142 158° South 493 567 37,000  Level Jacksonville Center
Sun 03:44:40 PM 28.6365 -83.0022 158° South 484 557 37,000  Level FlightAware ADS-B
Sun 03:45:21 PM 28.5500 -82.9642 159° South 485 558 37,000  Level FlightAware ADS-B
Sun 03:46:01 PM 28.4667 -82.9278 159° South 488 562 37,000  Level FlightAware ADS-B
Sun 03:46:43 PM 28.4028 -82.8998 159° South 490 564 37,000  Level FlightAware ADS-B
Sun 03:47:25 PM 28.3166 -82.8621 159° South 499 574 37,000  Level FlightAware ADS-B
Sun 03:47:56 PM 28.2213 -82.8205 159° South 497 572 37,000  Level FlightAware ADS-B
Sun 03:49:50 PM 27.9831 -82.7169 159° South 482 555 37,000  Level FlightAware ADS-B
Sun 03:51:04 PM 27.8462 -82.6448 155° Southeast 498 573 37,000 48 Level FlightAware ADS-B
Sun 03:51:54 PM 27.7350 -82.5691 149° Southeast 483 556 37,100  Climbing FlightAware ADS-B
Sun 03:52:23 PM 27.6761 -82.5384 155° Southeast 461 531 37,000 -22 Descending FlightAware ADS-B
Sun 03:56:24 PM 27.1702 -82.4992 176° South 451 519 37,000  Level FlightAware ADS-B
Sun 03:58:31 PM 26.9056 -82.4789 176° South 445 512 37,000  Level FlightAware ADS-B
Sun 03:59:15 PM 26.8155 -82.4710 176° South 448 516 37,000  Level FlightAware ADS-B
Sun 03:59:53 PM 26.7401 -82.4635 175° South 453 521 37,000  Level FlightAware ADS-B
Sun 04:00:42 PM 26.6346 -82.4538 175° South 453 521 37,000  Level FlightAware ADS-B
Sun 04:01:23 PM 26.5480 -82.4494 177° South 448 516 37,000  Level FlightAware ADS-B
Sun 04:01:56 PM 26.5061 -82.4508 182° South 444 511 37,000  Level FlightAware ADS-B
Sun 04:02:33 PM 26.4058 -82.4536 181° South 439 505 37,000  Level FlightAware ADS-B
Sun 04:03:23 PM 26.3043 -82.4565 181° South 441 507 37,000  Level FlightAware ADS-B
Sun 04:04:01 PM 26.2245 -82.4586 181° South 438 504 37,000  Level FlightAware ADS-B
Sun 04:04:43 PM 26.1418 -82.4608 181° South 434 499 37,000  Level FlightAware ADS-B
Sun 04:05:22 PM 26.0993 -82.4620 181° South 433 498 37,000  Level FlightAware ADS-B
Sun 04:06:02 PM 25.9836 -82.4653 181° South 435 501 37,000  Level FlightAware ADS-B
Sun 04:06:42 PM 25.9005 -82.4676 181° South 436 502 37,000  Level FlightAware ADS-B
Sun 04:07:23 PM 25.8214 -82.4696 181° South 432 497 37,000  Level FlightAware ADS-B
Sun 04:08:21 PM 25.7094 -82.4727 181° South 429 494 37,000 -161 Level FlightAware ADS-B
Sun 04:11:06 PM 25.3803 -82.4816 181° South 421 484 36,400 -474 Descending FlightAware ADS-B
Sun 04:12:34 PM 25.2122 -82.4892 181° South 439 505 35,000 -932 Descending Miami Center
Sun 04:13:34 PM 25.0908 -82.4928 182° South 434 499 34,100 -1,000 Descending Miami Center
Sun 04:14:34 PM 24.9753 -82.5125 189° South 439 505 33,000 -1,150 Descending Miami Center
Sun 04:15:34 PM 24.8833 -82.5703 210° Southwest 403 464 31,800 -1,300 Descending Miami Center
Sun 04:16:34 PM 24.7958 -82.6186 207° Southwest 377 434 30,400 -1,400 Descending Miami Center
Sun 04:17:34 PM 24.7125 -82.6697 209° Southwest 363 418 29,000 -1,300 Descending Miami Center
Sun 04:18:34 PM 24.6419 -82.7119 209° Southwest 337 388 27,800 -1,200 Descending Miami Center
Sun 04:19:34 PM 24.5547 -82.7558 205° Southwest 337 388 26,600 -1,200 Descending Miami Center
Sun 04:20:34 PM 24.4756 -82.8022 208° Southwest 337 388 25,400 -1,200 Descending Miami Center
Sun 04:21:34 PM 24.3942 -82.8508 209° Southwest 337 388 24,200 -1,200 Descending Miami Center
Sun 04:22:34 PM 24.2994 -82.8211 164° South 329 379 23,000 -1,100 Descending Miami Center
Sun 04:23:34 PM 24.2172 -82.7400 138° Southeast 340 391 22,000 -500 Descending Miami Center
Sun 04:24:34 PM 24.1389 -82.6611 137° Southeast 353 406 22,000  Level Miami Center
Sun 04:25:34 PM 24.0583 -82.5803 137° Southeast 378 435 22,000 -600 Level Miami Center
Sun 04:26:34 PM 23.9728 -82.5242 149° Southeast 384 442 20,800 -1,950 Descending Miami Center
Sun 04:27:34 PM 23.8786 -82.5333 185° South 334 384 18,100 -2,700 Descending Miami Center
Sun 04:28:34 PM 23.7864 -82.5428 185° South 334 384 15,400 -2,250 Descending Miami Center
Sun 04:29:34 PM 23.6819 -82.5428 180° South 341 392 13,600 -1,550 Descending Miami Center
Sun 04:30:34 PM 23.6000 -82.5617 192° South 336 387 12,300 -1,300 Descending Miami Center
Sun 04:32:00 PM 23.4258 -82.5170 167° South  Level FlightAware Approximate
Sun 04:39:00 PM 22.9891 -82.4091 167° South  Level Estimated
Sun 04:40:00 PM 22.9891 -82.4091 167° South  Level Estimated
Sun 04:41:00 PM 22.9891 -82.4091 167° South  Level Estimated
Sun 04:42:00 PM 22.9891 -82.4091 167° South  Level Estimated
Sun 04:43:00 PM 22.9891 -82.4091 167° South  Level Estimated
Sun 04:44:00 PM 22.9891 -82.4091 167° South  Level Estimated
Sun 04:45:00 PM 22.9891 -82.4091 167° South  Level Estimated
Sun 04:46:00 PM 22.9891 -82.4091 167° South  Level Estimated
Sun 04:47:00 PM 22.9891 -82.4091 167° South  Level Estimated
Sun 04:48:00 PM 22.9891 -82.4091 167° South  Level Estimated
Sun 04:49:00 PM 22.9891 -82.4091 167° South  Level Estimated
Sun 04:50:00 PM 22.9891 -82.4091 167° South  Level Estimated
Sun 04:51:00 PM 22.9891 -82.4091 167° South  Level Estimated
Sun 04:52:00 PM 22.9891 -82.4091 167° South  Level Estimated
Sun 04:53:00 PM 22.9891 -82.4091 167° South  Level Estimated

Login

Don't have an account? Register now (free) for customized features, flight alerts, and more!